createdAt,value
2022-10-03T00:00:08.452Z,100818.31
2022-10-03T00:00:40.605Z,100819.53
2022-10-03T00:01:18.049Z,100818.44
2022-10-03T00:01:54.258Z,100821.81
2022-10-03T00:02:25.919Z,100821.81
2022-10-03T00:03:11.484Z,100825.47
2022-10-03T00:03:49.511Z,100820.84
2022-10-03T00:04:32.147Z,100826.44
2022-10-03T00:05:21.683Z,100820.25
2022-10-03T00:06:11.607Z,100830.56
2022-10-03T00:06:53.240Z,100818.75
2022-10-03T00:07:29.990Z,100830.69
2022-10-03T00:08:01.607Z,100830.31
2022-10-03T00:08:35.906Z,100824.09
2022-10-03T00:09:16.724Z,100818.50
2022-10-03T00:09:57.275Z,100824.84
2022-10-03T00:10:33.049Z,100817.09
2022-10-03T00:11:07.948Z,100819.63
2022-10-03T00:11:43.312Z,100821.31
2022-10-03T00:12:14.920Z,100819.34
2022-10-03T00:12:51.632Z,100821.06
2022-10-03T00:13:26.076Z,100814.00
2022-10-03T00:14:00.558Z,100814.28
2022-10-03T00:14:35.010Z,100817.66
2022-10-03T00:15:12.127Z,100829.78
2022-10-03T00:16:02.545Z,100821.56
2022-10-03T00:16:36.945Z,100827.50
2022-10-03T00:17:08.417Z,100819.09
2022-10-03T00:17:49.112Z,100829.56
2022-10-03T00:18:20.615Z,100826.19
2022-10-03T00:18:58.051Z,100821.34
2022-10-03T00:19:44.861Z,100827.44
2022-10-03T00:20:19.288Z,100824.50
2022-10-03T00:21:08.957Z,100822.69
2022-10-03T00:21:40.923Z,100828.53
2022-10-03T00:22:12.858Z,100826.94
2022-10-03T00:22:59.545Z,100823.31
2022-10-03T00:23:33.870Z,100828.41
2022-10-03T00:24:14.541Z,100830.22
2022-10-03T00:25:06.362Z,100830.81
2022-10-03T00:25:46.942Z,100833.25
2022-10-03T00:26:18.507Z,100829.94
2022-10-03T00:26:53.359Z,100830.81
2022-10-03T00:27:33.737Z,100833.25
2022-10-03T00:28:05.289Z,100836.03
2022-10-03T00:28:39.684Z,100835.16
2022-10-03T00:29:22.950Z,100837.00
2022-10-03T00:29:56.980Z,100829.94
2022-10-03T00:30:28.540Z,100833.25
2022-10-03T00:31:16.219Z,100837.97
2022-10-03T00:31:50.927Z,100839.41
2022-10-03T00:32:22.503Z,100839.66
2022-10-03T00:33:04.467Z,100838.13
2022-10-03T00:33:36.021Z,100840.78
2022-10-03T00:34:26.230Z,100839.78
2022-10-03T00:35:03.027Z,100843.19
2022-10-03T00:35:56.137Z,100841.50
2022-10-03T00:36:41.811Z,100842.47
2022-10-03T00:37:33.743Z,100841.50
2022-10-03T00:38:14.549Z,100848.19
2022-10-03T00:39:00.898Z,100845.66
2022-10-03T00:39:43.963Z,100851.72
2022-10-03T00:40:18.170Z,100849.91
2022-10-03T00:40:58.688Z,100851.72
2022-10-03T00:41:42.524Z,100849.78
2022-10-03T00:42:14.046Z,100853.41
2022-10-03T00:42:51.171Z,100854.41
2022-10-03T00:43:37.633Z,100852.69
2022-10-03T00:44:11.687Z,100858.25
2022-10-03T00:44:52.153Z,100854.63
2022-10-03T00:45:36.041Z,100854.03
2022-10-03T00:46:20.026Z,100856.81
2022-10-03T00:46:57.564Z,100854.28
2022-10-03T00:47:29.112Z,100855.00
2022-10-03T00:48:06.260Z,100856.69
2022-10-03T00:49:00.777Z,100853.16
2022-10-03T00:49:32.237Z,100854.88
2022-10-03T00:50:06.535Z,100852.69
2022-10-03T00:50:50.013Z,100850.88
2022-10-03T00:51:40.166Z,100858.88
2022-10-03T00:52:20.837Z,100858.63
2022-10-03T00:53:01.554Z,100862.16
2022-10-03T00:53:51.713Z,100854.41
2022-10-03T00:54:43.352Z,100860.47
2022-10-03T00:55:34.630Z,100867.63
2022-10-03T00:56:24.528Z,100862.88
2022-10-03T00:57:14.637Z,100856.81
2022-10-03T00:57:51.847Z,100867.63
2022-10-03T00:58:26.086Z,100865.59
2022-10-03T00:59:15.891Z,100857.31
2022-10-03T01:00:02.608Z,100863.63
2022-10-03T01:00:34.522Z,100866.53
2022-10-03T01:01:21.188Z,100870.94
2022-10-03T01:01:52.894Z,100871.75
2022-10-03T01:02:28.873Z,100871.88
2022-10-03T01:03:12.491Z,100866.28
2022-10-03T01:03:47.102Z,100870.22
2022-10-03T01:04:21.386Z,100868.50
2022-10-03T01:04:52.905Z,100869.09
2022-10-03T01:05:31.164Z,100872.47
2022-10-03T01:06:21.145Z,100880.50
2022-10-03T01:06:55.292Z,100875.03
2022-10-03T01:07:45.308Z,100874.69
2022-10-03T01:08:25.548Z,100877.22
2022-10-03T01:08:57.139Z,100873.47
2022-10-03T01:09:34.961Z,100871.16
2022-10-03T01:10:10.422Z,100878.94
2022-10-03T01:10:51.698Z,100873.72
2022-10-03T01:11:35.689Z,100877.22
2022-10-03T01:12:16.132Z,100877.22
2022-10-03T01:12:57.185Z,100874.44
2022-10-03T01:13:28.955Z,100875.56
2022-10-03T01:14:03.268Z,100873.59
2022-10-03T01:15:03.855Z,100875.56
2022-10-03T01:16:24.517Z,100874.81
2022-10-03T01:17:13.871Z,100879.66
2022-10-03T01:17:48.025Z,100871.28
2022-10-03T01:18:23.362Z,100881.13
2022-10-03T01:18:59.467Z,100877.47
2022-10-03T01:19:48.444Z,100879.19
2022-10-03T01:20:38.247Z,100881.13
2022-10-03T01:21:18.576Z,100880.88
2022-10-03T01:21:52.711Z,100872.88
2022-10-03T01:22:39.702Z,100884.66
2022-10-03T01:23:14.881Z,100880.16
2022-10-03T01:23:52.201Z,100879.31
2022-10-03T01:24:42.239Z,100881.13
2022-10-03T01:25:16.251Z,100877.47
2022-10-03T01:26:13.693Z,100885.59
2022-10-03T01:26:58.507Z,100883.94
2022-10-03T01:27:48.186Z,100883.19
2022-10-03T01:28:19.759Z,100881.88
2022-10-03T01:28:54.509Z,100879.78
2022-10-03T01:29:32.537Z,100878.00
2022-10-03T01:30:04.859Z,100885.25
2022-10-03T01:30:41.409Z,100882.59
2022-10-03T01:31:14.035Z,100887.69
2022-10-03T01:31:53.654Z,100885.84
2022-10-03T01:32:26.527Z,100884.19
2022-10-03T01:33:00.812Z,100886.00
2022-10-03T01:33:39.867Z,100879.44
2022-10-03T01:34:13.162Z,100884.19
2022-10-03T01:34:49.110Z,100883.06
2022-10-03T01:35:20.726Z,100885.59
2022-10-03T01:35:52.227Z,100886.72
2022-10-03T01:36:26.295Z,100885.84
2022-10-03T01:37:00.468Z,100886.84
2022-10-03T01:37:50.385Z,100883.34
2022-10-03T01:38:34.780Z,100886.97
2022-10-03T01:39:09.434Z,100885.00
2022-10-03T01:39:42.593Z,100879.09
2022-10-03T01:40:14.139Z,100888.81
2022-10-03T01:40:55.060Z,100886.97
2022-10-03T01:41:40.530Z,100886.25
2022-10-03T01:42:14.456Z,100890.34
2022-10-03T01:42:45.863Z,100882.22
2022-10-03T01:43:18.692Z,100889.53
2022-10-03T01:43:56.231Z,100886.97
2022-10-03T01:44:39.311Z,100886.25
2022-10-03T01:45:12.929Z,100892.56
2022-10-03T01:45:44.388Z,100889.88
2022-10-03T01:46:22.095Z,100885.50
2022-10-03T01:47:11.965Z,100898.00
2022-10-03T01:47:57.578Z,100892.19
2022-10-03T01:48:31.640Z,100890.34
2022-10-03T01:49:10.990Z,100889.53
2022-10-03T01:49:51.238Z,100891.34
2022-10-03T01:50:31.237Z,100887.69
2022-10-03T01:51:02.711Z,100890.59
2022-10-03T01:51:34.161Z,100893.38
2022-10-03T01:52:15.590Z,100890.59
2022-10-03T01:52:53.168Z,100887.09
2022-10-03T01:53:30.558Z,100894.97
2022-10-03T01:54:05.660Z,100885.13
2022-10-03T01:54:40.352Z,100887.81
2022-10-03T01:55:13.996Z,100883.47
2022-10-03T01:56:11.501Z,100888.06
2022-10-03T01:56:55.524Z,100886.13
2022-10-03T01:57:27.081Z,100886.84
2022-10-03T01:58:01.566Z,100884.19
2022-10-03T01:58:53.257Z,100888.69
2022-10-03T01:59:37.237Z,100888.69
2022-10-03T02:00:13.672Z,100888.91
2022-10-03T02:00:46.745Z,100887.22
2022-10-03T02:01:29.948Z,100890.59
2022-10-03T02:02:04.179Z,100891.34
2022-10-03T02:02:35.854Z,100888.69
2022-10-03T02:03:26.256Z,100899.34
2022-10-03T02:04:03.688Z,100893.38
2022-10-03T02:04:38.012Z,100886.38
2022-10-03T02:05:15.501Z,100891.59
2022-10-03T02:06:25.434Z,100889.75
2022-10-03T02:06:59.343Z,100887.22
2022-10-03T02:07:35.911Z,100892.56
2022-10-03T02:08:16.767Z,100886.38
2022-10-03T02:08:48.305Z,100894.38
2022-10-03T02:09:25.726Z,100899.59
2022-10-03T02:10:02.928Z,100892.56
2022-10-03T02:10:40.179Z,100889.88
2022-10-03T02:11:11.752Z,100897.19
2022-10-03T02:11:54.458Z,100892.56
2022-10-03T02:12:33.896Z,100899.72
2022-10-03T02:13:09.725Z,100900.69
2022-10-03T02:13:55.036Z,100904.31
2022-10-03T02:14:45.259Z,100898.84
2022-10-03T02:15:35.743Z,100901.28
2022-10-03T02:16:08.743Z,100908.56
2022-10-03T02:16:44.317Z,100911.25
2022-10-03T02:17:21.105Z,100906.88
2022-10-03T02:18:10.744Z,100906.88
2022-10-03T02:19:00.710Z,100909.53
2022-10-03T02:19:49.567Z,100913.06
2022-10-03T02:20:33.113Z,100910.41
2022-10-03T02:21:08.966Z,100912.31
2022-10-03T02:22:06.624Z,100915.13
2022-10-03T02:22:42.400Z,100912.31
2022-10-03T02:23:23.976Z,100915.13
2022-10-03T02:24:21.626Z,100915.88
2022-10-03T02:24:55.486Z,100907.09
2022-10-03T02:25:36.270Z,100907.38
2022-10-03T02:26:20.489Z,100908.09
2022-10-03T02:26:58.679Z,100912.31
2022-10-03T02:27:30.317Z,100908.81
2022-10-03T02:28:07.815Z,100909.78
2022-10-03T02:28:45.176Z,100907.97
2022-10-03T02:29:22.268Z,100909.53
2022-10-03T02:29:53.809Z,100912.19
2022-10-03T02:30:35.042Z,100911.38
2022-10-03T02:31:15.095Z,100908.81
2022-10-03T02:31:58.392Z,100910.53
2022-10-03T02:32:29.865Z,100914.16
2022-10-03T02:33:17.401Z,100914.41
2022-10-03T02:33:48.865Z,100914.16
2022-10-03T02:34:38.981Z,100916.72
2022-10-03T02:35:35.656Z,100921.22
2022-10-03T02:36:25.542Z,100924.72
2022-10-03T02:36:56.963Z,100917.78
2022-10-03T02:37:34.546Z,100924.84
2022-10-03T02:38:08.834Z,100923.88
2022-10-03T02:38:58.961Z,100922.16
2022-10-03T02:39:35.052Z,100921.44
2022-10-03T02:40:06.532Z,100924.13
2022-10-03T02:40:54.062Z,100928.47
2022-10-03T02:41:48.696Z,100918.66
2022-10-03T02:42:38.540Z,100914.28
2022-10-03T02:43:16.087Z,100922.28
2022-10-03T02:44:06.489Z,100925.09
2022-10-03T02:44:53.110Z,100927.88
2022-10-03T02:46:03.073Z,100924.25
2022-10-03T02:46:53.086Z,100932.25
2022-10-03T02:47:27.567Z,100931.28
2022-10-03T02:48:31.399Z,100931.41
2022-10-03T02:49:12.843Z,100931.41
2022-10-03T02:49:50.180Z,100935.75
2022-10-03T02:50:30.587Z,100933.09
2022-10-03T02:51:20.229Z,100937.47
2022-10-03T02:52:11.993Z,100934.09
2022-10-03T02:52:52.370Z,100929.81
2022-10-03T02:53:23.850Z,100935.88
2022-10-03T02:54:07.653Z,100939.53
2022-10-03T02:54:51.496Z,100940.25
2022-10-03T02:55:22.988Z,100937.72
2022-10-03T02:56:13.277Z,100941.97
2022-10-03T02:56:47.833Z,100934.31
2022-10-03T02:57:37.748Z,100937.72
2022-10-03T02:58:18.047Z,100937.09
2022-10-03T02:58:49.503Z,100936.25
2022-10-03T02:59:30.029Z,100931.66
2022-10-03T03:00:04.073Z,100929.81
2022-10-03T03:00:48.421Z,100935.75
2022-10-03T03:01:20.002Z,100932.38
2022-10-03T03:02:03.367Z,100933.09
2022-10-03T03:02:53.571Z,100931.41
2022-10-03T03:03:43.679Z,100927.75
2022-10-03T03:04:17.790Z,100940.38
2022-10-03T03:04:49.213Z,100935.88
2022-10-03T03:05:39.284Z,100938.56
2022-10-03T03:06:13.277Z,100934.19
2022-10-03T03:07:03.477Z,100939.53
2022-10-03T03:07:53.704Z,100941.22
2022-10-03T03:08:31.199Z,100936.00
2022-10-03T03:09:02.618Z,100935.88
2022-10-03T03:09:34.050Z,100943.06
2022-10-03T03:10:24.315Z,100937.94
2022-10-03T03:10:58.614Z,100937.09
2022-10-03T03:11:30.062Z,100938.91
2022-10-03T03:12:27.414Z,100937.94
2022-10-03T03:13:19.344Z,100940.38
2022-10-03T03:13:50.911Z,100935.16
2022-10-03T03:14:31.764Z,100945.72
2022-10-03T03:15:03.219Z,100944.00
2022-10-03T03:15:37.409Z,100943.06
2022-10-03T03:16:11.658Z,100944.75
2022-10-03T03:16:55.699Z,100941.97
2022-10-03T03:17:30.016Z,100944.75
2022-10-03T03:18:04.007Z,100942.22
2022-10-03T03:18:44.774Z,100933.31
2022-10-03T03:19:18.757Z,100945.84
2022-10-03T03:20:08.963Z,100945.72
2022-10-03T03:21:00.764Z,100943.88
2022-10-03T03:21:34.861Z,100946.44
2022-10-03T03:22:10.813Z,100946.78
2022-10-03T03:23:11.409Z,100946.69
2022-10-03T03:23:45.508Z,100935.16
2022-10-03T03:24:26.045Z,100942.22
2022-10-03T03:24:57.602Z,100943.16
2022-10-03T03:25:38.282Z,100937.00
2022-10-03T03:26:09.806Z,100935.28
2022-10-03T03:26:41.267Z,100937.72
2022-10-03T03:27:31.600Z,100938.06
2022-10-03T03:28:06.581Z,100934.31
2022-10-03T03:28:51.486Z,100939.66
2022-10-03T03:29:34.477Z,100941.34
2022-10-03T03:30:11.632Z,100938.56
2022-10-03T03:31:03.451Z,100939.66
2022-10-03T03:31:37.862Z,100945.97
2022-10-03T03:32:25.083Z,100939.66
2022-10-03T03:33:15.053Z,100937.34
2022-10-03T03:33:52.709Z,100942.56
2022-10-03T03:34:42.702Z,100945.97
2022-10-03T03:35:32.667Z,100947.78
2022-10-03T03:36:13.021Z,100940.75
2022-10-03T03:37:05.239Z,100937.59
2022-10-03T03:37:36.784Z,100936.50
2022-10-03T03:38:17.242Z,100944.38
2022-10-03T03:38:55.152Z,100940.75
2022-10-03T03:39:26.578Z,100943.53
2022-10-03T03:40:07.303Z,100949.59
2022-10-03T03:40:53.870Z,100944.25
2022-10-03T03:41:43.326Z,100944.38
2022-10-03T03:42:14.823Z,100946.91
2022-10-03T03:42:56.348Z,100943.41
2022-10-03T03:43:50.217Z,100941.59
2022-10-03T03:44:24.405Z,100945.00
2022-10-03T03:45:08.514Z,100945.25
2022-10-03T03:45:42.940Z,100944.53
2022-10-03T03:46:22.811Z,100949.72
2022-10-03T03:47:01.242Z,100944.75
2022-10-03T03:47:35.731Z,100942.81
2022-10-03T03:48:14.003Z,100951.66
2022-10-03T03:49:04.251Z,100944.53
2022-10-03T03:49:54.172Z,100939.41
2022-10-03T03:50:34.750Z,100947.19
2022-10-03T03:51:19.155Z,100950.81
2022-10-03T03:51:55.725Z,100947.44
2022-10-03T03:52:45.753Z,100952.53
2022-10-03T03:53:35.717Z,100945.47
2022-10-03T03:54:19.312Z,100946.19
2022-10-03T03:54:53.917Z,100950.56
2022-10-03T03:55:27.957Z,100944.75
2022-10-03T03:56:05.000Z,100949.72
2022-10-03T03:56:36.482Z,100950.69
2022-10-03T03:57:11.533Z,100949.72
2022-10-03T03:57:55.572Z,100940.75
2022-10-03T03:58:37.737Z,100946.78
2022-10-03T03:59:21.183Z,100951.53
2022-10-03T04:00:06.827Z,100950.69
2022-10-03T04:00:57.923Z,100943.66
2022-10-03T04:01:38.419Z,100952.53
2022-10-03T04:02:17.646Z,100947.31
2022-10-03T04:02:49.127Z,100948.88
2022-10-03T04:03:35.837Z,100953.50
2022-10-03T04:04:20.110Z,100956.75
2022-10-03T04:04:55.323Z,100949.59
2022-10-03T04:05:26.800Z,100956.88
2022-10-03T04:05:58.214Z,100947.19
2022-10-03T04:06:50.070Z,100949.00
2022-10-03T04:07:27.891Z,100955.03
2022-10-03T04:08:05.146Z,100952.25
2022-10-03T04:08:45.507Z,100950.47
2022-10-03T04:09:35.236Z,100942.44
2022-10-03T04:10:21.893Z,100947.44
2022-10-03T04:11:07.784Z,100944.75
2022-10-03T04:11:55.638Z,100948.16
2022-10-03T04:12:32.201Z,100944.75
2022-10-03T04:13:03.710Z,100942.94
2022-10-03T04:13:47.012Z,100951.91
2022-10-03T04:14:23.363Z,100951.06
2022-10-03T04:14:58.197Z,100952.53
2022-10-03T04:15:38.417Z,100953.38
2022-10-03T04:16:09.959Z,100956.16
2022-10-03T04:16:50.886Z,100955.31
2022-10-03T04:17:41.145Z,100960.53
2022-10-03T04:18:17.167Z,100958.09
2022-10-03T04:18:52.516Z,100959.91
2022-10-03T04:19:33.272Z,100955.44
2022-10-03T04:20:14.039Z,100959.06
2022-10-03T04:20:52.411Z,100960.66
2022-10-03T04:21:30.092Z,100961.72
2022-10-03T04:22:04.230Z,100965.25
2022-10-03T04:22:53.662Z,100962.56
2022-10-03T04:23:33.969Z,100959.78
2022-10-03T04:24:23.945Z,100966.84
2022-10-03T04:25:04.423Z,100966.84
2022-10-03T04:25:46.393Z,100967.69
2022-10-03T04:26:43.855Z,100966.00
2022-10-03T04:27:17.955Z,100966.84
2022-10-03T04:27:52.077Z,100969.50
2022-10-03T04:28:41.631Z,100968.91
2022-10-03T04:29:21.924Z,100970.69
2022-10-03T04:29:58.760Z,100971.69
2022-10-03T04:30:39.264Z,100969.88
2022-10-03T04:31:10.772Z,100974.13
2022-10-03T04:31:42.761Z,100969.03
2022-10-03T04:32:33.262Z,100969.63
2022-10-03T04:33:07.796Z,100966.97
2022-10-03T04:33:52.175Z,100966.22
2022-10-03T04:34:34.068Z,100967.91
2022-10-03T04:35:08.402Z,100965.25
2022-10-03T04:35:57.899Z,100966.13
2022-10-03T04:36:47.783Z,100963.44
2022-10-03T04:37:24.467Z,100967.56
2022-10-03T04:38:14.710Z,100968.66
2022-10-03T04:38:49.761Z,100971.34
2022-10-03T04:39:21.280Z,100968.53
2022-10-03T04:39:55.663Z,100969.50
2022-10-03T04:40:30.966Z,100970.59
2022-10-03T04:41:06.282Z,100974.25
2022-10-03T04:41:43.573Z,100968.66
2022-10-03T04:42:23.792Z,100968.78
2022-10-03T04:42:59.235Z,100969.25
2022-10-03T04:43:36.901Z,100972.28
2022-10-03T04:44:11.084Z,100966.59
2022-10-03T04:44:57.703Z,100966.72
2022-10-03T04:45:44.160Z,100966.72
2022-10-03T04:46:21.300Z,100968.53
2022-10-03T04:46:55.774Z,100970.94
2022-10-03T04:47:34.591Z,100964.03
2022-10-03T04:48:10.857Z,100964.66
2022-10-03T04:48:48.321Z,100968.41
2022-10-03T04:49:38.205Z,100970.22
2022-10-03T04:50:12.291Z,100967.56
2022-10-03T04:50:55.796Z,100960.53
2022-10-03T04:51:37.696Z,100973.00
2022-10-03T04:52:17.965Z,100964.16
2022-10-03T04:53:01.596Z,100964.16
2022-10-03T04:53:42.219Z,100967.69
2022-10-03T04:54:16.658Z,100967.44
2022-10-03T04:55:02.770Z,100968.28
2022-10-03T04:55:47.707Z,100961.38
2022-10-03T04:56:19.198Z,100967.69
2022-10-03T04:56:59.794Z,100966.84
2022-10-03T04:57:32.054Z,100968.53
2022-10-03T04:58:07.719Z,100965.25
2022-10-03T04:58:39.737Z,100967.69
2022-10-03T04:59:26.472Z,100964.28
2022-10-03T05:00:21.259Z,100964.16
2022-10-03T05:01:07.945Z,100965.72
2022-10-03T05:01:43.244Z,100966.34
2022-10-03T05:02:34.722Z,100970.09
2022-10-03T05:03:24.823Z,100966.59
2022-10-03T05:04:01.933Z,100972.41
2022-10-03T05:04:43.691Z,100962.47
2022-10-03T05:05:21.046Z,100968.66
2022-10-03T05:05:52.901Z,100971.34
2022-10-03T05:06:27.295Z,100970.34
2022-10-03T05:06:58.700Z,100974.72
2022-10-03T05:07:35.597Z,100968.53
2022-10-03T05:08:13.088Z,100969.25
2022-10-03T05:08:48.713Z,100968.41
2022-10-03T05:09:25.147Z,100969.25
2022-10-03T05:10:00.885Z,100968.28
2022-10-03T05:10:40.463Z,100967.69
2022-10-03T05:11:24.828Z,100974.50
2022-10-03T05:11:59.340Z,100972.91
2022-10-03T05:12:43.013Z,100967.44
2022-10-03T05:13:14.534Z,100976.41
2022-10-03T05:13:54.723Z,100967.56
2022-10-03T05:14:27.984Z,100971.22
2022-10-03T05:15:17.872Z,100968.53
2022-10-03T05:16:04.360Z,100976.28
2022-10-03T05:16:37.612Z,100974.38
2022-10-03T05:17:14.876Z,100964.53
2022-10-03T05:17:48.666Z,100972.91
2022-10-03T05:18:26.907Z,100970.00
2022-10-03T05:19:17.046Z,100977.03
2022-10-03T05:20:07.262Z,100976.28
2022-10-03T05:20:41.356Z,100973.72
2022-10-03T05:21:30.842Z,100971.94
2022-10-03T05:22:22.570Z,100971.94
2022-10-03T05:22:56.969Z,100970.81
2022-10-03T05:23:30.536Z,100977.16
2022-10-03T05:24:23.326Z,100974.25
2022-10-03T05:24:57.758Z,100970.94
2022-10-03T05:25:46.941Z,100978.00
2022-10-03T05:26:44.181Z,100975.44
2022-10-03T05:27:19.281Z,100974.59
2022-10-03T05:27:53.489Z,100981.63
2022-10-03T05:28:31.051Z,100986.13
2022-10-03T05:29:14.453Z,100982.63
2022-10-03T05:29:57.555Z,100987.84
2022-10-03T05:30:36.577Z,100984.28
2022-10-03T05:31:23.624Z,100985.16
2022-10-03T05:32:06.541Z,100986.00
2022-10-03T05:32:45.863Z,100984.28
2022-10-03T05:33:19.936Z,100993.28
2022-10-03T05:33:51.409Z,100986.97
2022-10-03T05:34:33.721Z,100985.16
2022-10-03T05:35:17.457Z,100980.91
2022-10-03T05:35:48.951Z,100988.78
2022-10-03T05:36:31.193Z,100984.56
2022-10-03T05:37:05.479Z,100987.09
2022-10-03T05:38:12.127Z,100988.91
2022-10-03T05:39:01.623Z,100993.19
2022-10-03T05:39:38.916Z,100987.84
2022-10-03T05:40:28.853Z,100983.44
2022-10-03T05:41:03.533Z,100986.25
2022-10-03T05:41:35.070Z,100989.91
2022-10-03T05:42:22.630Z,100988.91
2022-10-03T05:42:55.113Z,100986.97
2022-10-03T05:43:32.315Z,100996.91
2022-10-03T05:44:29.812Z,100985.41
2022-10-03T05:45:04.139Z,100996.31
2022-10-03T05:45:35.615Z,100992.41
2022-10-03T05:46:12.912Z,100992.56
2022-10-03T05:47:13.454Z,100995.84
2022-10-03T05:47:49.710Z,100995.84
2022-10-03T05:48:39.530Z,100994.97
2022-10-03T05:49:18.793Z,100993.41
2022-10-03T05:49:55.077Z,100993.28
2022-10-03T05:50:38.724Z,100998.63
2022-10-03T05:51:19.376Z,100995.84
2022-10-03T05:51:58.238Z,100990.03
2022-10-03T05:52:48.267Z,100990.13
2022-10-03T05:53:39.877Z,100987.09
2022-10-03T05:54:30.206Z,100993.28
2022-10-03T05:55:04.036Z,100999.47
2022-10-03T05:55:37.138Z,100992.31
2022-10-03T05:56:09.029Z,100994.00
2022-10-03T05:57:09.661Z,100998.41
2022-10-03T05:57:51.651Z,100996.69
2022-10-03T05:58:41.866Z,100988.66
2022-10-03T05:59:29.842Z,100996.56
2022-10-03T06:00:04.280Z,100992.19
2022-10-03T06:01:02.107Z,100994.97
2022-10-03T06:01:51.971Z,100998.41
2022-10-03T06:02:38.886Z,100997.66
2022-10-03T06:03:22.911Z,101000.06
2022-10-03T06:04:17.444Z,100995.72
2022-10-03T06:04:48.903Z,100996.69
2022-10-03T06:05:35.258Z,100995.97
2022-10-03T06:06:09.755Z,100999.97
2022-10-03T06:06:46.878Z,101002.75
2022-10-03T06:07:50.533Z,100995.72
2022-10-03T06:08:27.071Z,101003.63
2022-10-03T06:09:17.235Z,101000.06
2022-10-03T06:09:54.335Z,100997.75
2022-10-03T06:10:35.351Z,101004.56
2022-10-03T06:11:18.971Z,101001.19
2022-10-03T06:11:53.111Z,100998.41
2022-10-03T06:12:28.158Z,101007.38
2022-10-03T06:13:06.249Z,101010.63
2022-10-03T06:13:52.757Z,101009.31
2022-10-03T06:14:34.929Z,101004.47
2022-10-03T06:15:11.133Z,101005.66
2022-10-03T06:15:57.115Z,101014.41
2022-10-03T06:16:37.742Z,101009.31
2022-10-03T06:17:17.945Z,101014.88
2022-10-03T06:17:55.139Z,101011.97
2022-10-03T06:18:44.795Z,101013.78
2022-10-03T06:19:35.119Z,101022.41
2022-10-03T06:20:25.050Z,101019.13
2022-10-03T06:21:14.987Z,101014.88
2022-10-03T06:22:05.015Z,101018.28
2022-10-03T06:22:39.517Z,101020.00
2022-10-03T06:23:13.123Z,101021.78
2022-10-03T06:23:47.597Z,101017.19
2022-10-03T06:24:26.270Z,101018.28
2022-10-03T06:25:03.591Z,101017.31
2022-10-03T06:25:37.847Z,101014.53
2022-10-03T06:26:09.289Z,101018.28
2022-10-03T06:26:46.655Z,101019.88
2022-10-03T06:27:29.147Z,101018.50
2022-10-03T06:28:21.427Z,101020.81
2022-10-03T06:29:04.409Z,101024.22
2022-10-03T06:29:42.310Z,101018.03
2022-10-03T06:30:19.403Z,101019.00
2022-10-03T06:30:50.971Z,101033.81
2022-10-03T06:31:22.466Z,101021.56
2022-10-03T06:32:14.222Z,101027.00
2022-10-03T06:32:54.687Z,101026.88
2022-10-03T06:33:26.235Z,101032.34
2022-10-03T06:33:57.706Z,101024.59
2022-10-03T06:34:35.320Z,101036.00
2022-10-03T06:35:24.837Z,101031.38
2022-10-03T06:36:11.750Z,101033.22
2022-10-03T06:37:01.656Z,101032.22
2022-10-03T06:37:42.078Z,101026.78
2022-10-03T06:38:33.960Z,101031.28
2022-10-03T06:39:23.870Z,101026.88
2022-10-03T06:40:01.157Z,101036.50
2022-10-03T06:40:32.653Z,101030.66
2022-10-03T06:41:09.283Z,101027.00
2022-10-03T06:42:00.984Z,101026.78
2022-10-03T06:42:43.973Z,101037.44
2022-10-03T06:43:33.834Z,101036.63
2022-10-03T06:44:17.194Z,101031.50
2022-10-03T06:45:06.937Z,101035.28
2022-10-03T06:45:38.500Z,101029.94
2022-10-03T06:46:28.827Z,101032.63
2022-10-03T06:47:11.710Z,101029.78
2022-10-03T06:47:45.959Z,101037.69
2022-10-03T06:48:17.521Z,101026.06
2022-10-03T06:48:55.722Z,101031.38
2022-10-03T06:49:29.925Z,101030.44
2022-10-03T06:50:19.303Z,101032.97
2022-10-03T06:51:16.889Z,101035.00
2022-10-03T06:51:51.185Z,101032.47
2022-10-03T06:52:25.540Z,101030.44
2022-10-03T06:53:17.693Z,101032.13
2022-10-03T06:54:07.576Z,101031.88
2022-10-03T06:54:57.184Z,101031.38
2022-10-03T06:55:31.725Z,101023.16
2022-10-03T06:56:03.233Z,101032.34
2022-10-03T06:56:49.934Z,101030.44
2022-10-03T06:57:21.848Z,101025.31
2022-10-03T06:58:11.846Z,101027.88
2022-10-03T06:59:01.713Z,101029.69
2022-10-03T06:59:42.180Z,101039.03
2022-10-03T07:00:16.343Z,101039.16
2022-10-03T07:00:55.074Z,101035.53
2022-10-03T07:01:32.458Z,101037.56
2022-10-03T07:02:04.154Z,101033.94
2022-10-03T07:02:51.974Z,101041.13
2022-10-03T07:03:41.283Z,101039.16
2022-10-03T07:04:18.527Z,101034.66
2022-10-03T07:05:10.295Z,101035.78
2022-10-03T07:06:00.348Z,101036.63
2022-10-03T07:06:31.963Z,101038.31
2022-10-03T07:07:14.200Z,101030.56
2022-10-03T07:07:54.442Z,101034.91
2022-10-03T07:08:44.513Z,101033.94
2022-10-03T07:09:16.025Z,101040.00
2022-10-03T07:09:50.080Z,101040.13
2022-10-03T07:10:27.843Z,101038.31
2022-10-03T07:11:11.130Z,101040.13
2022-10-03T07:11:48.524Z,101049.59
2022-10-03T07:12:31.833Z,101045.22
2022-10-03T07:13:17.268Z,101044.38
2022-10-03T07:13:57.647Z,101047.28
2022-10-03T07:14:44.054Z,101049.13
2022-10-03T07:15:33.548Z,101043.91
2022-10-03T07:16:26.823Z,101042.66
2022-10-03T07:17:27.946Z,101040.34
2022-10-03T07:18:08.322Z,101042.06
2022-10-03T07:18:58.159Z,101046.56
2022-10-03T07:19:38.507Z,101043.28
2022-10-03T07:20:15.701Z,101042.06
2022-10-03T07:21:05.605Z,101044.75
2022-10-03T07:21:55.457Z,101054.69
2022-10-03T07:22:29.528Z,101046.69
2022-10-03T07:23:18.601Z,101054.47
2022-10-03T07:24:08.314Z,101049.97
2022-10-03T07:24:45.719Z,101051.78
2022-10-03T07:25:55.609Z,101048.75
2022-10-03T07:26:27.159Z,101045.69
2022-10-03T07:27:05.492Z,101051.78
2022-10-03T07:27:58.836Z,101051.78
2022-10-03T07:28:34.092Z,101053.47
2022-10-03T07:29:08.399Z,101055.19
2022-10-03T07:29:50.530Z,101058.22
2022-10-03T07:30:22.647Z,101056.50
2022-10-03T07:30:56.642Z,101048.38
2022-10-03T07:31:44.035Z,101059.91
2022-10-03T07:32:42.055Z,101059.91
2022-10-03T07:33:28.916Z,101057.72
2022-10-03T07:34:19.022Z,101062.47
2022-10-03T07:35:05.624Z,101059.03
2022-10-03T07:35:44.386Z,101058.31
2022-10-03T07:36:34.358Z,101055.41
2022-10-03T07:37:11.077Z,101066.34
2022-10-03T07:37:45.726Z,101060.16
2022-10-03T07:38:35.465Z,101062.94
2022-10-03T07:39:18.771Z,101065.13
2022-10-03T07:40:05.469Z,101063.31
2022-10-03T07:40:36.889Z,101063.66
2022-10-03T07:41:17.253Z,101065.38
2022-10-03T07:41:51.329Z,101064.16
2022-10-03T07:42:31.682Z,101066.09
2022-10-03T07:43:21.680Z,101075.81
2022-10-03T07:44:22.174Z,101074.09
2022-10-03T07:45:12.090Z,101073.03
2022-10-03T07:46:02.482Z,101073.16
2022-10-03T07:46:54.385Z,101076.53
2022-10-03T07:47:44.745Z,101079.34